Terminal Aerodrome Forecast
Issued by NWS Wilmington, OH

Current Version | Previous Version | Text Only | Print | Product List | Glossary Off
Versions: 1 2 3 4 5 6 7 8 9 10 11 12 13 14 15 16 17 18 19 20

212
FTUS41 KILN 141740
TAFILN
TAF
KILN 141740Z 1418/1518 19007KT P6SM BKN060
     FM150000 VRB02KT P6SM SCT090
     FM150700 00000KT 3SM BR SKC
      TEMPO 1510/1512 1SM BR
     FM151400 25003KT P6SM SCT030=

USA.gov is the U.S. government's official web portal to all federal, state and local government web resources and services.